Time;durP1;ratioP1;P1;durP2;ratioP2;P2;SDS_P1;SDS_P2;PMS_P1;PMS_P2;Temp;Humidity;BMP_temperature;BMP_pressure;BME280_temperature;BME280_humidity;BME280_pressure;Samples;Min_cycle;Max_cycle;Signal;HPM_P1;HPM_P2
2022/03/13 00:00:39;;;;;;;24.87;23.87;;;20.40;46.20;;;;;;5073027;28;20479;-44
2022/03/13 00:03:09;;;;;;;24.83;23.83;;;20.40;46.20;;;;;;5072450;28;20451;-44
2022/03/13 00:05:41;;;;;;;24.60;23.60;;;20.40;46.20;;;;;;5072824;28;20474;-45
2022/03/13 00:08:18;;;;;;;26.07;24.97;;;20.40;46.20;;;;;;5057050;28;20475;-44
2022/03/13 00:10:47;;;;;;;25.07;24.00;;;20.40;46.20;;;;;;5071882;28;20486;-45
2022/03/13 00:13:15;;;;;;;24.27;23.17;;;20.40;46.30;;;;;;5073455;28;20456;-44
2022/03/13 00:15:42;;;;;;;25.50;24.40;;;20.30;46.20;;;;;;5072848;28;20439;-49
2022/03/13 00:18:11;;;;;;;25.77;24.67;;;20.30;46.20;;;;;;5072798;28;20451;-44
2022/03/13 00:20:40;;;;;;;25.20;24.20;;;20.30;46.30;;;;;;5072617;28;20895;-44
2022/03/13 00:23:07;;;;;;;24.97;23.87;;;20.20;46.30;;;;;;5072866;28;20446;-44
2022/03/13 00:25:34;;;;;;;25.00;24.00;;;20.20;46.30;;;;;;5072582;28;20946;-44
2022/03/13 00:28:00;;;;;;;26.50;25.40;;;20.20;46.40;;;;;;5072640;28;20446;-44
2022/03/13 00:30:27;;;;;;;24.93;23.93;;;20.20;46.40;;;;;;5072098;28;20464;-44
2022/03/13 00:32:54;;;;;;;25.13;24.13;;;20.10;46.40;;;;;;5072140;28;20436;-46
2022/03/13 00:35:21;;;;;;;26.00;24.90;;;20.10;46.50;;;;;;5072146;28;20475;-44
2022/03/13 00:37:49;;;;;;;26.20;25.20;;;20.00;46.50;;;;;;5072363;28;20458;-44
2022/03/13 00:40:16;;;;;;;25.20;24.20;;;20.00;46.60;;;;;;5072210;28;20479;-44
2022/03/13 00:42:43;;;;;;;25.70;24.60;;;20.00;46.70;;;;;;5072037;28;20444;-45
2022/03/13 00:45:10;;;;;;;25.93;24.83;;;19.90;46.60;;;;;;5072240;28;20466;-44
2022/03/13 00:47:37;;;;;;;24.30;23.30;;;19.90;46.80;;;;;;5072086;28;21064;-44
2022/03/13 00:50:05;;;;;;;25.37;24.37;;;19.80;46.80;;;;;;5071715;28;20471;-44
2022/03/13 00:52:31;;;;;;;26.00;24.90;;;19.80;46.90;;;;;;5071981;28;20451;-44
2022/03/13 00:54:59;;;;;;;25.97;24.87;;;19.80;47.60;;;;;;5070782;28;20480;-44
2022/03/13 00:57:29;;;;;;;25.43;24.43;;;19.80;47.00;;;;;;5071988;28;20455;-44
2022/03/13 00:59:55;;;;;;;23.93;23.00;;;19.80;47.00;;;;;;5071558;28;20483;-45
2022/03/13 01:02:22;;;;;;;25.00;24.00;;;19.90;47.00;;;;;;5071723;28;20451;-44
2022/03/13 01:04:49;;;;;;;25.30;24.30;;;20.00;47.00;;;;;;5071647;28;20450;-45
2022/03/13 01:07:16;;;;;;;25.23;24.20;;;20.00;46.90;;;;;;5072031;28;20455;-45
2022/03/13 01:09:42;;;;;;;25.07;24.00;;;20.10;46.80;;;;;;5071446;28;20443;-44
2022/03/13 01:12:12;;;;;;;25.70;24.70;;;20.10;46.60;;;;;;5071577;28;20448;-45
2022/03/13 01:14:39;;;;;;;25.93;24.93;;;20.20;46.50;;;;;;5071432;28;20994;-44
2022/03/13 01:17:07;;;;;;;24.70;23.80;;;20.20;46.40;;;;;;5071916;28;20481;-45
2022/03/13 01:19:34;;;;;;;25.23;24.23;;;20.30;46.30;;;;;;5071493;28;20451;-44
2022/03/13 01:22:01;;;;;;;26.27;25.27;;;20.30;46.20;;;;;;5071679;28;20538;-44
2022/03/13 01:24:31;;;;;;;24.37;23.37;;;20.40;46.20;;;;;;5071547;28;20471;-45
2022/03/13 01:27:02;;;;;;;24.90;23.90;;;20.40;46.00;;;;;;5054998;28;20440;-45
2022/03/13 01:29:31;;;;;;;25.00;24.00;;;20.40;45.90;;;;;;5071454;28;20443;-44
2022/03/13 01:31:58;;;;;;;25.07;24.07;;;20.40;45.90;;;;;;5071303;28;20479;-46
2022/03/13 01:34:47;;;;;;;24.70;23.80;;;20.30;45.80;;;;;;5071259;28;20478;-44
2022/03/13 01:37:30;;;;;;;26.43;25.43;;;20.40;46.40;;;;;;5071545;28;20450;-44
2022/03/13 01:39:58;;;;;;;24.60;23.60;;;20.40;45.80;;;;;;5070005;28;20562;-44
2022/03/13 01:42:25;;;;;;;24.50;23.60;;;20.30;45.70;;;;;;5071321;28;20803;-45
2022/03/13 01:44:54;;;;;;;25.50;24.40;;;20.30;45.70;;;;;;5071223;28;20467;-45
2022/03/13 01:47:21;;;;;;;24.80;23.83;;;20.30;45.70;;;;;;5071657;28;20466;-44
2022/03/13 01:49:48;;;;;;;25.47;24.37;;;20.30;45.70;;;;;;5071353;28;20459;-44
2022/03/13 01:52:15;;;;;;;25.73;24.57;;;20.30;45.70;;;;;;5071478;28;20454;-45
2022/03/13 01:54:45;;;;;;;25.07;23.97;;;20.20;45.60;;;;;;5071037;28;20566;-45
2022/03/13 01:57:17;;;;;;;24.90;23.90;;;20.20;45.60;;;;;;5071404;28;20795;-44
2022/03/13 01:59:44;;;;;;;24.30;23.30;;;20.20;45.70;;;;;;5071016;28;20452;-46
2022/03/13 02:02:13;;;;;;;24.43;23.47;;;20.20;45.70;;;;;;5071065;28;20448;-45
2022/03/13 02:04:40;;;;;;;24.73;23.73;;;20.10;45.70;;;;;;5071416;28;20435;-44
2022/03/13 02:07:07;;;;;;;25.97;24.90;;;20.10;45.70;;;;;;5075411;28;20475;-46
2022/03/13 02:09:34;;;;;;;24.70;23.70;;;20.10;45.70;;;;;;5075237;28;20446;-44
2022/03/13 02:12:02;;;;;;;28.10;27.00;;;20.00;45.70;;;;;;5074880;28;20447;-44
2022/03/13 02:14:29;;;;;;;29.43;28.33;;;20.00;45.80;;;;;;5074257;28;20471;-46
2022/03/13 02:16:55;;;;;;;25.10;24.10;;;20.00;45.80;;;;;;5074723;28;20448;-44
2022/03/13 02:19:23;;;;;;;25.30;24.20;;;19.90;45.80;;;;;;5075283;28;20443;-45
2022/03/13 02:21:52;;;;;;;25.50;24.50;;;19.90;46.00;;;;;;5074938;28;20813;-44
2022/03/13 02:24:24;;;;;;;25.60;24.60;;;19.80;46.00;;;;;;5074775;28;20443;-44
2022/03/13 02:27:00;;;;;;;24.47;23.53;;;19.80;46.10;;;;;;5074539;28;20447;-44
2022/03/13 02:29:28;;;;;;;24.47;23.47;;;19.70;46.20;;;;;;5074787;28;20475;-44
2022/03/13 02:31:55;;;;;;;24.83;23.83;;;19.70;46.30;;;;;;5074839;28;20535;-45
2022/03/13 02:34:23;;;;;;;23.70;22.80;;;19.70;46.40;;;;;;5074513;28;20482;-44
2022/03/13 02:37:01;;;;;;;25.17;24.07;;;19.70;46.40;;;;;;5074722;28;20466;-44
2022/03/13 02:39:34;;;;;;;25.60;24.57;;;19.70;46.40;;;;;;5074902;28;20443;-44
2022/03/13 02:42:01;;;;;;;24.73;23.73;;;19.80;46.30;;;;;;5074691;28;20977;-44
2022/03/13 02:44:28;;;;;;;25.40;24.40;;;19.90;46.30;;;;;;5074467;28;20953;-44
2022/03/13 02:47:01;;;;;;;26.40;25.30;;;19.90;46.20;;;;;;5058419;28;20439;-44
2022/03/13 02:49:29;;;;;;;25.60;24.50;;;19.90;46.00;;;;;;5074666;28;20443;-45
2022/03/13 02:51:59;;;;;;;24.40;23.40;;;20.00;46.00;;;;;;5074295;28;20455;-44
2022/03/13 02:54:25;;;;;;;25.77;24.37;;;20.00;45.80;;;;;;5074230;28;20454;-44
2022/03/13 02:56:54;;;;;;;25.40;24.40;;;20.10;45.80;;;;;;5074260;28;20448;-45
2022/03/13 02:59:21;;;;;;;25.67;24.63;;;20.10;45.60;;;;;;5074305;28;20454;-44
2022/03/13 03:01:49;;;;;;;25.00;24.00;;;20.20;45.60;;;;;;5073962;28;20994;-44
2022/03/13 03:04:17;;;;;;;26.00;24.93;;;20.20;45.50;;;;;;5074012;28;20843;-44
2022/03/13 03:06:55;;;;;;;26.40;25.30;;;20.20;45.40;;;;;;5074159;28;20451;-44
2022/03/13 03:09:22;;;;;;;25.03;24.03;;;20.20;45.30;;;;;;5073458;28;20440;-45
2022/03/13 03:11:49;;;;;;;26.23;25.13;;;20.20;45.30;;;;;;5073707;28;20510;-44
2022/03/13 03:14:17;;;;;;;27.03;25.70;;;20.20;45.30;;;;;;5074149;28;20492;-45
2022/03/13 03:16:45;;;;;;;25.70;24.67;;;20.10;45.20;;;;;;5073174;28;20505;-44
2022/03/13 03:19:12;;;;;;;25.37;24.40;;;20.20;45.20;;;;;;5073595;28;20448;-44
2022/03/13 03:21:39;;;;;;;25.67;24.67;;;20.10;45.10;;;;;;5073692;28;20467;-47
2022/03/13 03:24:17;;;;;;;24.90;23.90;;;20.10;45.20;;;;;;5073619;28;20483;-46
2022/03/13 03:26:44;;;;;;;24.63;23.63;;;20.10;45.10;;;;;;5073789;28;20450;-44
2022/03/13 03:29:12;;;;;;;25.70;24.70;;;20.10;45.20;;;;;;5073694;28;20448;-45
2022/03/13 03:31:44;;;;;;;25.00;24.00;;;20.10;45.20;;;;;;5073512;28;20998;-45
2022/03/13 03:34:13;;;;;;;25.40;24.40;;;20.00;45.10;;;;;;5073326;28;20447;-44
2022/03/13 03:36:42;;;;;;;27.37;26.37;;;20.00;45.10;;;;;;5073497;28;20812;-44
2022/03/13 03:39:09;;;;;;;26.10;25.10;;;19.90;45.10;;;;;;5073704;28;20505;-47
2022/03/13 03:41:36;;;;;;;25.73;24.73;;;20.00;45.20;;;;;;5073379;28;20471;-45
2022/03/13 03:44:03;;;;;;;26.17;25.07;;;19.90;45.20;;;;;;5073587;28;20451;-45
2022/03/13 03:46:30;;;;;;;25.30;24.30;;;19.90;45.20;;;;;;5073455;28;20435;-44
2022/03/13 03:48:58;;;;;;;25.43;24.43;;;19.80;45.20;;;;;;5073466;28;20455;-44
2022/03/13 03:51:25;;;;;;;26.83;25.57;;;19.80;45.30;;;;;;5073246;28;20797;-44
2022/03/13 03:53:51;;;;;;;25.53;24.43;;;19.70;45.30;;;;;;5073131;28;20471;-45
2022/03/13 03:56:18;;;;;;;25.67;24.63;;;19.70;45.40;;;;;;5073184;28;20839;-44
2022/03/13 03:58:45;;;;;;;26.20;25.10;;;19.60;45.50;;;;;;5073091;28;20460;-45
2022/03/13 04:01:12;;;;;;;26.10;25.10;;;19.60;45.60;;;;;;5072853;28;20466;-45
2022/03/13 04:03:39;;;;;;;26.60;25.50;;;19.50;45.70;;;;;;5073131;28;20444;-44
2022/03/13 04:06:07;;;;;;;26.53;25.43;;;19.50;45.80;;;;;;5072950;28;20531;-45
2022/03/13 04:08:34;;;;;;;26.77;25.67;;;19.50;45.70;;;;;;5073030;28;20448;-44
2022/03/13 04:11:01;;;;;;;26.60;25.50;;;19.60;45.80;;;;;;5072687;28;20525;-44
2022/03/13 04:13:28;;;;;;;28.03;26.83;;;19.60;45.70;;;;;;5072028;28;20443;-46
2022/03/13 04:15:56;;;;;;;26.90;25.80;;;19.70;45.70;;;;;;5072804;28;20475;-45
2022/03/13 04:18:23;;;;;;;25.83;24.83;;;19.70;45.50;;;;;;5072558;28;20474;-45
2022/03/13 04:20:49;;;;;;;25.97;24.87;;;19.80;45.50;;;;;;5072703;28;20471;-44
2022/03/13 04:23:17;;;;;;;28.70;27.60;;;19.80;45.30;;;;;;5072765;28;20519;-45
2022/03/13 04:25:44;;;;;;;26.07;25.03;;;19.90;45.20;;;;;;5072728;28;20965;-45
2022/03/13 04:28:11;;;;;;;26.30;25.30;;;19.90;45.10;;;;;;5072148;28;20447;-44
2022/03/13 04:30:39;;;;;;;26.40;25.30;;;19.90;45.00;;;;;;5072165;28;20562;-45
2022/03/13 04:33:07;;;;;;;26.80;25.70;;;20.00;45.00;;;;;;5072368;28;20504;-47
2022/03/13 04:35:33;;;;;;;26.60;25.47;;;20.00;44.90;;;;;;5072402;28;20553;-44
2022/03/13 04:38:00;;;;;;;26.63;25.53;;;19.90;44.70;;;;;;5072427;28;21045;-45
2022/03/13 04:40:28;;;;;;;26.67;25.43;;;19.90;44.70;;;;;;5072259;28;20455;-45
2022/03/13 04:42:55;;;;;;;26.30;25.20;;;20.00;44.70;;;;;;5072486;28;20444;-45
2022/03/13 04:45:26;;;;;;;26.63;25.53;;;20.00;44.70;;;;;;5072251;28;20436;-44
2022/03/13 04:47:53;;;;;;;26.83;25.73;;;20.00;44.60;;;;;;5072236;28;20534;-44
2022/03/13 04:50:20;;;;;;;26.13;25.03;;;20.00;44.60;;;;;;5071968;28;20460;-45
2022/03/13 04:52:47;;;;;;;25.83;24.73;;;19.90;44.50;;;;;;5072288;28;20443;-44
2022/03/13 04:55:14;;;;;;;26.20;25.10;;;19.90;44.60;;;;;;5071927;28;21012;-46
2022/03/13 04:57:42;;;;;;;25.80;24.70;;;19.90;44.60;;;;;;5072398;28;20440;-45
2022/03/13 05:00:09;;;;;;;27.00;25.90;;;19.90;44.50;;;;;;5071658;28;20472;-44
2022/03/13 05:02:37;;;;;;;26.97;25.87;;;19.90;44.50;;;;;;5071666;28;20446;-45
2022/03/13 05:05:05;;;;;;;27.13;26.03;;;19.90;44.50;;;;;;5071843;28;20455;-45
2022/03/13 05:07:32;;;;;;;26.87;25.87;;;19.90;44.50;;;;;;5071810;28;20448;-45
2022/03/13 05:09:59;;;;;;;28.17;26.97;;;19.80;44.40;;;;;;5071462;28;20503;-44
2022/03/13 05:12:29;;;;;;;29.03;27.83;;;19.80;44.50;;;;;;5071659;28;20450;-45
2022/03/13 05:14:58;;;;;;;28.57;27.43;;;19.80;44.50;;;;;;5071650;28;20454;-44
2022/03/13 05:17:24;;;;;;;27.73;26.57;;;19.80;44.60;;;;;;5071580;28;20446;-45
2022/03/13 05:19:51;;;;;;;27.43;26.33;;;19.70;44.50;;;;;;5071834;28;20467;-44
2022/03/13 05:22:18;;;;;;;27.80;26.70;;;19.70;44.60;;;;;;5071366;28;20448;-45
2022/03/13 05:24:44;;;;;;;28.83;27.60;;;19.70;44.60;;;;;;5071457;28;20443;-45
2022/03/13 05:27:11;;;;;;;28.87;27.77;;;19.60;44.60;;;;;;5071483;28;20785;-44
2022/03/13 05:29:38;;;;;;;29.87;28.63;;;19.60;44.70;;;;;;5071651;28;20462;-46
2022/03/13 05:32:07;;;;;;;30.40;29.20;;;19.60;44.70;;;;;;5071408;28;20455;-44
2022/03/13 05:34:34;;;;;;;30.23;28.93;;;19.60;44.90;;;;;;5071644;28;20451;-45
2022/03/13 05:37:01;;;;;;;29.77;28.57;;;19.70;45.10;;;;;;5071274;28;20482;-44
2022/03/13 05:39:28;;;;;;;29.23;28.03;;;19.70;45.20;;;;;;5071239;28;20439;-44
2022/03/13 05:41:55;;;;;;;29.23;28.13;;;19.70;45.20;;;;;;5071133;28;20443;-45
2022/03/13 05:44:23;;;;;;;28.70;27.60;;;19.80;45.20;;;;;;5071448;28;20459;-44
2022/03/13 05:46:49;;;;;;;31.83;30.40;;;19.80;45.20;;;;;;5071254;28;20452;-45
2022/03/13 05:49:17;;;;;;;28.53;27.43;;;19.80;45.10;;;;;;5071085;28;20783;-48
2022/03/13 05:51:46;;;;;;;28.03;26.93;;;20.00;45.10;;;;;;5071212;28;20838;-46
2022/03/13 05:54:13;;;;;;;28.03;26.83;;;20.00;44.90;;;;;;5071405;28;20449;-44
2022/03/13 05:56:39;;;;;;;30.07;28.87;;;20.00;44.80;;;;;;5071064;28;20475;-44
2022/03/13 05:59:07;;;;;;;32.10;30.90;;;20.00;44.70;;;;;;5071180;28;20455;-44
2022/03/13 06:01:35;;;;;;;34.50;33.10;;;20.00;44.60;;;;;;5070857;28;20555;-44
2022/03/13 06:04:02;;;;;;;32.37;31.07;;;20.00;44.60;;;;;;5071027;28;20452;-45
2022/03/13 06:06:32;;;;;;;32.40;31.20;;;20.10;44.50;;;;;;5070930;28;20466;-44
2022/03/13 06:08:58;;;;;;;28.50;27.40;;;20.10;44.50;;;;;;5070898;28;20465;-44
2022/03/13 06:11:25;;;;;;;31.33;30.13;;;20.10;44.40;;;;;;5067155;28;20464;-45
2022/03/13 06:13:52;;;;;;;30.80;29.50;;;20.00;44.30;;;;;;5071390;28;20447;-43
2022/03/13 06:16:21;;;;;;;31.00;29.80;;;20.10;44.40;;;;;;5070357;28;20471;-43
2022/03/13 06:18:48;;;;;;;29.50;28.40;;;20.00;44.30;;;;;;5071119;28;20534;-43
2022/03/13 06:21:14;;;;;;;30.27;29.07;;;20.00;44.20;;;;;;5070845;28;20468;-43
2022/03/13 06:23:42;;;;;;;30.17;28.97;;;20.00;44.20;;;;;;5070545;28;20450;-45
2022/03/13 06:26:10;;;;;;;31.47;29.67;;;20.00;44.20;;;;;;5070959;28;20800;-45
2022/03/13 06:28:37;;;;;;;31.60;30.40;;;20.00;44.20;;;;;;5070868;28;20478;-49
2022/03/13 06:31:04;;;;;;;30.83;29.63;;;20.00;44.20;;;;;;5070591;28;20471;-44
2022/03/13 06:33:31;;;;;;;30.10;28.93;;;20.00;44.20;;;;;;5070804;28;20467;-43
2022/03/13 06:35:58;;;;;;;31.37;30.10;;;19.90;44.70;;;;;;5070780;28;20566;-45
2022/03/13 06:38:25;;;;;;;32.83;31.53;;;19.90;44.20;;;;;;5070829;28;20454;-44
2022/03/13 06:40:53;;;;;;;29.07;27.97;;;19.90;44.10;;;;;;5070758;28;20494;-45
2022/03/13 06:43:20;;;;;;;29.40;28.30;;;19.90;44.20;;;;;;5070782;28;20478;-47
2022/03/13 06:45:47;;;;;;;30.73;29.53;;;19.90;44.10;;;;;;5070713;28;20440;-45
2022/03/13 06:48:15;;;;;;;31.67;30.47;;;19.80;44.10;;;;;;5070657;28;20448;-45
2022/03/13 06:50:43;;;;;;;32.10;30.90;;;19.80;44.30;;;;;;5070310;28;20550;-46
2022/03/13 06:53:10;;;;;;;31.60;30.30;;;19.80;44.40;;;;;;5073032;28;20451;-45
2022/03/13 06:55:37;;;;;;;33.17;31.87;;;19.70;44.40;;;;;;5074198;28;20439;-45
2022/03/13 06:58:05;;;;;;;33.23;31.47;;;19.70;44.60;;;;;;5074426;28;20477;-44
2022/03/13 07:00:32;;;;;;;32.47;31.17;;;19.60;44.60;;;;;;5074089;28;20467;-48
2022/03/13 07:02:59;;;;;;;31.57;30.37;;;19.60;44.70;;;;;;5074241;28;20443;-46
2022/03/13 07:05:26;;;;;;;32.07;30.87;;;19.60;44.80;;;;;;5073778;28;20807;-45
2022/03/13 07:07:54;;;;;;;34.67;33.30;;;19.60;44.80;;;;;;5074075;28;20451;-45
2022/03/13 07:10:21;;;;;;;31.10;29.90;;;19.70;44.80;;;;;;5073673;28;20551;-45
2022/03/13 07:12:48;;;;;;;31.60;30.30;;;19.80;44.70;;;;;;5073922;28;20790;-45
2022/03/13 07:15:18;;;;;;;31.97;30.67;;;19.90;44.60;;;;;;5074084;28;20451;-48
2022/03/13 07:17:46;;;;;;;29.23;28.03;;;20.00;44.40;;;;;;5074156;28;20486;-50
2022/03/13 07:20:13;;;;;;;32.47;31.20;;;20.10;44.30;;;;;;5073364;28;20467;-49
2022/03/13 07:22:40;;;;;;;31.93;30.70;;;20.10;44.10;;;;;;5074052;28;20494;-45
2022/03/13 07:25:08;;;;;;;33.40;32.13;;;20.20;44.00;;;;;;5073749;28;20447;-45
2022/03/13 07:27:35;;;;;;;31.80;30.60;;;20.30;43.80;;;;;;5074113;28;20439;-45
2022/03/13 07:30:01;;;;;;;32.63;31.33;;;20.30;43.70;;;;;;5073652;28;20839;-46
2022/03/13 07:32:30;;;;;;;33.20;32.00;;;20.40;44.00;;;;;;5073582;28;20459;-47
2022/03/13 07:34:57;;;;;;;33.30;32.00;;;20.50;44.20;;;;;;5073356;28;20458;-46
2022/03/13 07:37:24;;;;;;;33.40;32.20;;;20.60;43.80;;;;;;5073453;28;20480;-47
2022/03/13 07:39:55;;;;;;;30.50;29.30;;;20.60;43.90;;;;;;5073718;28;20471;-46
2022/03/13 07:42:23;;;;;;;30.47;29.17;;;20.90;43.80;;;;;;5073568;28;20480;-47
2022/03/13 07:44:53;;;;;;;31.10;29.80;;;21.10;43.40;;;;;;5072877;28;20450;-46
2022/03/13 07:47:20;;;;;;;31.97;30.67;;;21.30;43.20;;;;;;5073450;28;20448;-54
2022/03/13 07:49:48;;;;;;;33.77;32.37;;;21.40;43.00;;;;;;5073464;28;21001;-52
2022/03/13 07:52:15;;;;;;;32.53;31.23;;;21.70;42.80;;;;;;5073404;28;20444;-51
2022/03/13 07:54:41;;;;;;;32.53;31.23;;;22.00;42.60;;;;;;5073367;28;20439;-51
2022/03/13 07:57:08;;;;;;;32.45;30.88;;;22.10;42.10;;;;;;5073181;28;20450;-53
2022/03/13 07:59:35;;;;;;;33.07;31.77;;;22.30;42.10;;;;;;5072949;28;20205;-48
2022/03/13 08:02:02;;;;;;;35.10;32.80;;;22.40;42.10;;;;;;5072994;28;20474;-52
2022/03/13 08:04:29;;;;;;;33.43;32.13;;;22.50;42.00;;;;;;5072985;28;20942;-47
2022/03/13 08:06:57;;;;;;;32.70;31.23;;;22.50;42.00;;;;;;5072974;28;20863;-49
2022/03/13 08:09:25;;;;;;;32.33;31.00;;;22.50;42.00;;;;;;5073051;28;20803;-49
2022/03/13 08:11:53;;;;;;;34.60;33.13;;;22.60;42.10;;;;;;5072807;28;20485;-49
2022/03/13 08:14:20;;;;;;;33.73;32.27;;;22.60;42.00;;;;;;5072649;28;20457;-51
2022/03/13 08:16:48;;;;;;;33.20;31.90;;;22.70;42.00;;;;;;5072715;28;20562;-45
2022/03/13 08:19:15;;;;;;;34.50;33.10;;;22.70;42.00;;;;;;5073010;28;20822;-48
2022/03/13 08:21:43;;;;;;;32.57;31.27;;;22.70;41.90;;;;;;5072341;28;20464;-51
2022/03/13 08:24:14;;;;;;;32.40;31.03;;;22.70;41.90;;;;;;5072605;28;20451;-45
2022/03/13 08:26:42;;;;;;;33.53;32.10;;;22.80;41.90;;;;;;5072620;28;20522;-50
2022/03/13 08:29:10;;;;;;;33.63;32.23;;;23.00;41.80;;;;;;5072393;28;20499;-55
2022/03/13 08:31:38;;;;;;;31.80;30.50;;;23.10;41.60;;;;;;5072389;28;20464;-52
2022/03/13 08:34:07;;;;;;;34.10;32.63;;;23.20;41.20;;;;;;5072677;28;20465;-45
2022/03/13 08:36:34;;;;;;;32.23;30.80;;;23.30;41.00;;;;;;5072440;28;20524;-46
2022/03/13 08:39:02;;;;;;;33.60;32.20;;;23.40;40.80;;;;;;5072286;28;21031;-48
2022/03/13 08:41:31;;;;;;;33.13;31.73;;;23.50;40.60;;;;;;5072298;28;20468;-46
2022/03/13 08:43:58;;;;;;;32.00;30.60;;;23.50;40.40;;;;;;5071974;28;20527;-45
2022/03/13 08:46:25;;;;;;;33.00;31.23;;;23.60;40.40;;;;;;5072228;28;20555;-52
2022/03/13 08:48:52;;;;;;;31.63;30.35;;;23.60;40.20;;;;;;5071789;28;20453;-47
2022/03/13 08:51:23;;;;;;;32.80;31.30;;;23.60;40.10;;;;;;5072004;28;20225;-53
2022/03/13 08:53:51;;;;;;;33.43;32.03;;;23.80;40.10;;;;;;5071936;28;20443;-47
2022/03/13 08:56:21;;;;;;;31.87;30.60;;;23.90;39.90;;;;;;5071673;28;20526;-52
2022/03/13 08:58:49;;;;;;;33.13;31.73;;;24.20;39.80;;;;;;5061207;28;20467;-50
2022/03/13 09:01:17;;;;;;;34.57;33.10;;;24.30;39.50;;;;;;5071746;28;20498;-49
2022/03/13 09:03:44;;;;;;;32.77;31.37;;;24.40;39.30;;;;;;5071651;28;20811;-49
2022/03/13 09:06:11;;;;;;;33.27;31.77;;;24.50;39.10;;;;;;5072044;28;20444;-47
2022/03/13 09:08:39;;;;;;;33.47;32.17;;;24.50;38.80;;;;;;5071715;28;20451;-50
2022/03/13 09:11:07;;;;;;;32.63;31.33;;;24.50;38.80;;;;;;5071623;28;20916;-46
2022/03/13 09:13:35;;;;;;;32.33;31.03;;;24.60;38.60;;;;;;5071632;28;20448;-55
2022/03/13 09:16:04;;;;;;;34.87;33.43;;;24.60;38.60;;;;;;5070247;28;20483;-48
2022/03/13 09:18:31;;;;;;;33.00;31.60;;;24.60;38.60;;;;;;5071335;28;20543;-48
2022/03/13 09:20:58;;;;;;;33.57;32.23;;;24.60;39.10;;;;;;5071213;28;20475;-51
2022/03/13 09:23:26;;;;;;;33.77;32.47;;;24.70;38.60;;;;;;5071141;28;20447;-46
2022/03/13 09:25:53;;;;;;;34.43;33.03;;;24.70;38.60;;;;;;5071548;28;20452;-52
2022/03/13 09:28:21;;;;;;;34.83;33.40;;;24.80;38.60;;;;;;5071323;28;20621;-54
2022/03/13 09:30:50;;;;;;;33.17;31.67;;;25.00;38.50;;;;;;5071500;28;21007;-47
2022/03/13 09:33:19;;;;;;;35.70;34.37;;;25.10;38.40;;;;;;5071379;28;20454;-50
2022/03/13 09:35:46;;;;;;;33.23;31.93;;;25.20;38.30;;;;;;5071503;28;20875;-50
2022/03/13 09:38:13;;;;;;;34.93;33.53;;;25.40;38.10;;;;;;5071742;28;20483;-51
2022/03/13 09:40:40;;;;;;;34.20;32.90;;;25.40;37.90;;;;;;5071285;28;20459;-48
2022/03/13 09:43:07;;;;;;;35.87;34.37;;;25.50;37.80;;;;;;5071332;28;20506;-52
2022/03/13 09:45:35;;;;;;;34.33;32.93;;;25.40;37.20;;;;;;5071518;28;20805;-47
2022/03/13 09:48:04;;;;;;;35.50;34.10;;;25.40;37.30;;;;;;5071088;28;21190;-50
2022/03/13 09:50:33;;;;;;;33.40;32.00;;;25.40;37.00;;;;;;5071104;28;20471;-49
2022/03/13 09:53:01;;;;;;;32.93;31.63;;;25.40;36.80;;;;;;5071471;28;20810;-49
2022/03/13 09:55:29;;;;;;;34.97;33.57;;;25.40;37.00;;;;;;5071238;28;20815;-47
2022/03/13 09:57:56;;;;;;;34.60;33.10;;;25.50;37.00;;;;;;5070989;28;20498;-49
2022/03/13 10:00:25;;;;;;;31.60;30.33;;;25.70;36.90;;;;;;5071174;28;20471;-51
2022/03/13 10:02:56;;;;;;;35.30;33.90;;;25.90;36.70;;;;;;5067995;28;20809;-50
2022/03/13 10:05:27;;;;;;;34.27;32.97;;;26.10;36.50;;;;;;5071394;28;20443;-52
2022/03/13 10:07:59;;;;;;;34.07;32.77;;;26.20;36.40;;;;;;5070619;28;20444;-52
2022/03/13 10:10:28;;;;;;;33.40;32.00;;;26.20;36.20;;;;;;5055908;28;20468;-50
2022/03/13 10:12:56;;;;;;;34.50;33.10;;;26.20;36.00;;;;;;5070877;28;20448;-51
2022/03/13 10:15:25;;;;;;;32.00;30.70;;;26.10;35.80;;;;;;5071170;28;20802;-47
2022/03/13 10:17:53;;;;;;;32.20;30.90;;;26.10;35.80;;;;;;5070425;28;20479;-51
2022/03/13 10:20:24;;;;;;;32.10;30.87;;;26.10;35.80;;;;;;5071151;28;20472;-49
2022/03/13 10:22:59;;;;;;;33.03;31.43;;;26.10;35.50;;;;;;5055119;28;20526;-46
2022/03/13 10:25:33;;;;;;;31.97;30.53;;;26.10;35.90;;;;;;5071026;28;20451;-49
2022/03/13 10:28:14;;;;;;;31.23;30.03;;;26.10;36.00;;;;;;5074994;28;20809;-45
2022/03/13 10:30:41;;;;;;;32.83;31.53;;;26.10;36.00;;;;;;5074785;28;20463;-46
2022/03/13 10:33:09;;;;;;;32.50;31.20;;;26.20;36.10;;;;;;5074726;28;20462;-51
2022/03/13 10:35:36;;;;;;;31.13;29.93;;;26.20;36.10;;;;;;5074954;28;20447;-46
2022/03/13 10:38:14;;;;;;;34.20;32.90;;;26.20;36.00;;;;;;5074862;28;20583;-48
2022/03/13 10:40:42;;;;;;;33.20;31.90;;;26.20;36.10;;;;;;5074408;28;20471;-46
2022/03/13 10:43:10;;;;;;;32.53;31.33;;;26.30;36.10;;;;;;5074534;28;20447;-47
2022/03/13 10:45:39;;;;;;;30.20;29.00;;;26.20;36.10;;;;;;5074224;28;20482;-50
2022/03/13 10:48:21;;;;;;;28.57;27.37;;;26.30;36.10;;;;;;5073675;28;20912;-47
2022/03/13 10:50:50;;;;;;;32.20;31.00;;;26.30;36.10;;;;;;5074415;28;20970;-49
2022/03/13 10:53:18;;;;;;;30.70;29.50;;;26.30;35.90;;;;;;5074424;28;20448;-50
2022/03/13 10:56:04;;;;;;;34.60;33.20;;;26.50;35.80;;;;;;5074108;28;20814;-50
2022/03/13 10:58:32;;;;;;;33.10;31.80;;;26.50;35.80;;;;;;5074449;28;20889;-51
2022/03/13 11:01:04;;;;;;;31.07;29.87;;;26.60;35.70;;;;;;5074089;28;20471;-47
2022/03/13 11:03:32;;;;;;;31.67;30.47;;;26.70;35.60;;;;;;5074264;28;20451;-50
2022/03/13 11:05:59;;;;;;;29.87;28.67;;;26.70;35.40;;;;;;5074061;28;21005;-50
2022/03/13 11:08:26;;;;;;;31.57;30.17;;;26.80;35.30;;;;;;5073981;28;20447;-48
2022/03/13 11:10:55;;;;;;;31.60;30.30;;;26.80;35.70;;;;;;5073496;28;20442;-47
2022/03/13 11:13:26;;;;;;;30.57;29.33;;;26.80;35.20;;;;;;5058002;28;20855;-47
2022/03/13 11:15:55;;;;;;;33.00;31.67;;;26.90;35.30;;;;;;5073463;28;20454;-46
2022/03/13 11:18:24;;;;;;;34.33;32.63;;;26.90;35.30;;;;;;5073622;28;20503;-46
2022/03/13 11:20:51;;;;;;;31.80;30.60;;;27.00;35.20;;;;;;5073762;28;20464;-46
2022/03/13 11:23:18;;;;;;;31.07;29.77;;;27.10;35.20;;;;;;5073787;28;20569;-46
2022/03/13 11:25:45;;;;;;;32.07;30.77;;;27.20;35.20;;;;;;5073688;28;20451;-46
2022/03/13 11:28:13;;;;;;;29.97;28.77;;;27.40;35.20;;;;;;5073649;28;20443;-50
2022/03/13 11:30:40;;;;;;;31.93;30.63;;;27.50;35.00;;;;;;5073778;28;20468;-55
2022/03/13 11:33:08;;;;;;;31.53;30.33;;;27.70;34.90;;;;;;5073554;28;20454;-47
2022/03/13 11:35:34;;;;;;;31.33;30.13;;;27.90;34.60;;;;;;5073601;28;20520;-47
2022/03/13 11:38:19;;;;;;;31.47;30.27;;;28.10;34.40;;;;;;5072987;28;21002;-46
2022/03/13 11:40:46;;;;;;;32.30;30.87;;;28.40;34.20;;;;;;5073497;28;20463;-50
2022/03/13 11:43:16;;;;;;;32.27;30.93;;;28.80;33.80;;;;;;5073860;28;20451;-46
2022/03/13 11:45:48;;;;;;;33.00;31.70;;;29.30;33.50;;;;;;5073453;28;20443;-47
2022/03/13 11:48:43;;;;;;;33.47;32.17;;;30.50;32.40;;;;;;5073449;28;20457;-50
2022/03/13 11:51:11;;;;;;;35.30;33.90;;;32.20;30.70;;;;;;5073313;28;20458;-46
2022/03/13 11:53:49;;;;;;;31.80;30.60;;;33.20;29.60;;;;;;5073350;28;20469;-47
2022/03/13 11:56:27;;;;;;;33.60;32.30;;;34.20;28.70;;;;;;5073364;28;20938;-46
2022/03/13 11:59:00;;;;;;;33.70;32.40;;;34.90;28.40;;;;;;5073402;28;20478;-49
2022/03/13 12:01:37;;;;;;;34.20;32.90;;;35.50;27.80;;;;;;5072909;28;20217;-50
2022/03/13 12:04:23;;;;;;;33.40;32.10;;;35.90;26.90;;;;;;5072967;28;20711;-49
2022/03/13 12:06:56;;;;;;;31.88;30.67;;;36.20;26.50;;;;;;5073052;28;20207;-46
2022/03/13 12:09:31;;;;;;;35.10;33.80;;;36.30;26.20;;;;;;5073132;28;20873;-46
2022/03/13 12:12:04;;;;;;;33.70;32.40;;;36.70;25.90;;;;;;5072689;28;20555;-52
2022/03/13 12:14:56;;;;;;;32.70;31.40;;;37.00;26.10;;;;;;5073677;28;20212;-50
2022/03/13 12:17:25;;;;;;;33.72;32.42;;;37.00;25.50;;;;;;5072338;28;20254;-46
2022/03/13 12:19:53;;;;;;;33.47;32.05;;;37.00;25.50;;;;;;5073047;28;20308;-47
2022/03/13 12:22:24;;;;;;;32.97;31.67;;;36.70;25.60;;;;;;5072732;28;20201;-50
2022/03/13 12:24:52;;;;;;;35.05;33.65;;;36.70;25.70;;;;;;5072917;28;20661;-53
2022/03/13 12:27:19;;;;;;;34.95;33.65;;;36.90;25.60;;;;;;5072876;28;20197;-47
2022/03/13 12:29:58;;;;;;;35.13;33.72;;;37.10;25.50;;;;;;5072881;28;20698;-46
2022/03/13 12:32:30;;;;;;;32.80;31.60;;;37.40;25.30;;;;;;5072317;28;20200;-48
2022/03/13 12:34:57;;;;;;;33.35;32.05;;;37.60;25.20;;;;;;5072358;28;20616;-47